sensor_id;sensor_type;location;lat;lon;timestamp;temperature;humidity
21316;DHT22;10817;55.820;13.030;2024-02-26T00:00:37;3.90;99.90
21316;DHT22;10817;55.820;13.030;2024-02-26T00:03:04;3.90;99.90
21316;DHT22;10817;55.820;13.030;2024-02-26T00:05:31;3.90;99.90
21316;DHT22;10817;55.820;13.030;2024-02-26T00:07:58;3.90;99.90
21316;DHT22;10817;55.820;13.030;2024-02-26T00:10:26;4.80;99.90
21316;DHT22;10817;55.820;13.030;2024-02-26T00:12:53;4.00;99.90
21316;DHT22;10817;55.820;13.030;2024-02-26T00:15:20;4.10;99.90
21316;DHT22;10817;55.820;13.030;2024-02-26T00:17:47;4.00;99.90
21316;DHT22;10817;55.820;13.030;2024-02-26T00:20:14;4.10;99.90
21316;DHT22;10817;55.820;13.030;2024-02-26T00:22:41;4.10;99.90
21316;DHT22;10817;55.820;13.030;2024-02-26T00:25:08;4.10;99.90
21316;DHT22;10817;55.820;13.030;2024-02-26T00:27:36;4.10;99.90
21316;DHT22;10817;55.820;13.030;2024-02-26T00:30:06;4.10;99.90
21316;DHT22;10817;55.820;13.030;2024-02-26T00:32:33;4.10;99.90
21316;DHT22;10817;55.820;13.030;2024-02-26T00:35:00;4.10;99.90
21316;DHT22;10817;55.820;13.030;2024-02-26T00:37:26;4.10;99.90
21316;DHT22;10817;55.820;13.030;2024-02-26T00:39:53;4.10;99.90
21316;DHT22;10817;55.820;13.030;2024-02-26T00:42:20;4.00;99.90
21316;DHT22;10817;55.820;13.030;2024-02-26T00:44:48;4.10;99.90
21316;DHT22;10817;55.820;13.030;2024-02-26T00:47:15;4.00;99.90
21316;DHT22;10817;55.820;13.030;2024-02-26T00:49:42;4.00;99.90
21316;DHT22;10817;55.820;13.030;2024-02-26T00:52:09;4.00;99.90
21316;DHT22;10817;55.820;13.030;2024-02-26T00:54:36;4.00;99.90
21316;DHT22;10817;55.820;13.030;2024-02-26T00:57:03;4.10;99.90
21316;DHT22;10817;55.820;13.030;2024-02-26T00:59:29;4.20;99.90
21316;DHT22;10817;55.820;13.030;2024-02-26T01:01:58;4.60;99.90
21316;DHT22;10817;55.820;13.030;2024-02-26T01:04:27;4.10;99.90
21316;DHT22;10817;55.820;13.030;2024-02-26T01:06:54;4.20;99.90
21316;DHT22;10817;55.820;13.030;2024-02-26T01:09:21;4.30;99.90
21316;DHT22;10817;55.820;13.030;2024-02-26T01:11:56;4.30;99.90
21316;DHT22;10817;55.820;13.030;2024-02-26T01:14:26;4.50;99.90
21316;DHT22;10817;55.820;13.030;2024-02-26T01:17:09;7.10;99.90
21316;DHT22;10817;55.820;13.030;2024-02-26T01:19:43;4.60;99.90
21316;DHT22;10817;55.820;13.030;2024-02-26T01:22:10;4.10;99.90
21316;DHT22;10817;55.820;13.030;2024-02-26T01:24:37;4.20;99.90
21316;DHT22;10817;55.820;13.030;2024-02-26T01:27:04;4.10;99.90
21316;DHT22;10817;55.820;13.030;2024-02-26T01:29:32;4.30;99.90
21316;DHT22;10817;55.820;13.030;2024-02-26T01:31:59;3.70;99.90
21316;DHT22;10817;55.820;13.030;2024-02-26T01:34:27;3.50;99.90
21316;DHT22;10817;55.820;13.030;2024-02-26T01:36:54;3.50;99.90
21316;DHT22;10817;55.820;13.030;2024-02-26T01:39:21;3.30;99.90
21316;DHT22;10817;55.820;13.030;2024-02-26T01:41:48;3.30;99.90
21316;DHT22;10817;55.820;13.030;2024-02-26T01:44:15;3.20;99.90
21316;DHT22;10817;55.820;13.030;2024-02-26T01:46:42;3.20;99.90
21316;DHT22;10817;55.820;13.030;2024-02-26T01:49:11;3.20;99.90
21316;DHT22;10817;55.820;13.030;2024-02-26T01:51:41;3.30;99.90
21316;DHT22;10817;55.820;13.030;2024-02-26T01:54:09;3.30;99.90
21316;DHT22;10817;55.820;13.030;2024-02-26T01:57:29;3.30;99.90
21316;DHT22;10817;55.820;13.030;2024-02-26T01:59:56;3.10;99.90
21316;DHT22;10817;55.820;13.030;2024-02-26T02:02:23;3.10;99.90
21316;DHT22;10817;55.820;13.030;2024-02-26T02:04:50;3.10;99.90
21316;DHT22;10817;55.820;13.030;2024-02-26T02:07:19;3.00;99.90
21316;DHT22;10817;55.820;13.030;2024-02-26T02:09:47;2.90;99.90
21316;DHT22;10817;55.820;13.030;2024-02-26T02:12:14;2.90;99.90
21316;DHT22;10817;55.820;13.030;2024-02-26T02:14:41;2.80;99.90
21316;DHT22;10817;55.820;13.030;2024-02-26T02:17:08;2.80;99.90
21316;DHT22;10817;55.820;13.030;2024-02-26T02:19:35;2.70;99.90
21316;DHT22;10817;55.820;13.030;2024-02-26T02:22:03;3.30;99.90
21316;DHT22;10817;55.820;13.030;2024-02-26T02:24:30;2.50;99.90
21316;DHT22;10817;55.820;13.030;2024-02-26T02:26:57;2.40;99.90
21316;DHT22;10817;55.820;13.030;2024-02-26T02:29:24;2.30;99.90
21316;DHT22;10817;55.820;13.030;2024-02-26T02:31:53;2.20;99.90
21316;DHT22;10817;55.820;13.030;2024-02-26T02:34:21;2.20;99.90
21316;DHT22;10817;55.820;13.030;2024-02-26T02:36:52;3.20;99.90
21316;DHT22;10817;55.820;13.030;2024-02-26T02:39:20;2.20;99.90
21316;DHT22;10817;55.820;13.030;2024-02-26T02:41:47;2.20;99.90
21316;DHT22;10817;55.820;13.030;2024-02-26T02:44:14;2.10;99.90
21316;DHT22;10817;55.820;13.030;2024-02-26T02:46:41;3.90;99.90
21316;DHT22;10817;55.820;13.030;2024-02-26T02:49:08;1.90;99.90
21316;DHT22;10817;55.820;13.030;2024-02-26T02:51:36;1.60;99.90
21316;DHT22;10817;55.820;13.030;2024-02-26T02:54:03;1.50;99.90
21316;DHT22;10817;55.820;13.030;2024-02-26T02:56:31;1.50;99.90
21316;DHT22;10817;55.820;13.030;2024-02-26T02:58:58;1.70;99.90
21316;DHT22;10817;55.820;13.030;2024-02-26T03:01:25;1.90;99.90
21316;DHT22;10817;55.820;13.030;2024-02-26T03:03:52;2.00;99.90
21316;DHT22;10817;55.820;13.030;2024-02-26T03:06:19;2.10;99.90
21316;DHT22;10817;55.820;13.030;2024-02-26T03:08:46;4.30;99.90
21316;DHT22;10817;55.820;13.030;2024-02-26T03:11:14;2.20;99.90
21316;DHT22;10817;55.820;13.030;2024-02-26T03:13:43;2.40;99.90
21316;DHT22;10817;55.820;13.030;2024-02-26T03:16:10;4.10;99.90
21316;DHT22;10817;55.820;13.030;2024-02-26T03:18:39;2.50;99.90
21316;DHT22;10817;55.820;13.030;2024-02-26T03:21:06;2.50;99.90
21316;DHT22;10817;55.820;13.030;2024-02-26T03:23:33;2.40;99.90
21316;DHT22;10817;55.820;13.030;2024-02-26T03:26:02;2.50;99.90
21316;DHT22;10817;55.820;13.030;2024-02-26T03:28:29;2.50;99.90
21316;DHT22;10817;55.820;13.030;2024-02-26T03:30:57;2.50;99.90
21316;DHT22;10817;55.820;13.030;2024-02-26T03:33:24;2.50;99.90
21316;DHT22;10817;55.820;13.030;2024-02-26T03:35:51;2.50;99.90
21316;DHT22;10817;55.820;13.030;2024-02-26T03:38:18;2.60;99.90
21316;DHT22;10817;55.820;13.030;2024-02-26T03:40:45;2.50;99.90
21316;DHT22;10817;55.820;13.030;2024-02-26T03:43:12;2.40;99.90
21316;DHT22;10817;55.820;13.030;2024-02-26T03:45:39;2.30;99.90
21316;DHT22;10817;55.820;13.030;2024-02-26T03:48:07;2.30;99.90
21316;DHT22;10817;55.820;13.030;2024-02-26T03:50:37;2.40;99.90
21316;DHT22;10817;55.820;13.030;2024-02-26T03:53:08;1.80;99.90
21316;DHT22;10817;55.820;13.030;2024-02-26T03:55:53;2.60;99.90
21316;DHT22;10817;55.820;13.030;2024-02-26T03:58:21;4.50;99.90
21316;DHT22;10817;55.820;13.030;2024-02-26T04:00:51;3.50;99.90
21316;DHT22;10817;55.820;13.030;2024-02-26T04:03:28;1.50;99.90
21316;DHT22;10817;55.820;13.030;2024-02-26T04:05:58;2.70;99.90
21316;DHT22;10817;55.820;13.030;2024-02-26T04:08:25;1.40;99.90
21316;DHT22;10817;55.820;13.030;2024-02-26T04:10:52;1.80;99.90
21316;DHT22;10817;55.820;13.030;2024-02-26T04:13:19;1.70;99.90
21316;DHT22;10817;55.820;13.030;2024-02-26T04:15:46;3.70;99.90
21316;DHT22;10817;55.820;13.030;2024-02-26T04:18:13;3.70;99.90
21316;DHT22;10817;55.820;13.030;2024-02-26T04:20:42;1.30;99.90
21316;DHT22;10817;55.820;13.030;2024-02-26T04:23:09;3.00;99.90
21316;DHT22;10817;55.820;13.030;2024-02-26T04:25:35;1.10;99.90
21316;DHT22;10817;55.820;13.030;2024-02-26T04:28:03;1.00;99.90
21316;DHT22;10817;55.820;13.030;2024-02-26T04:30:30;1.00;99.90
21316;DHT22;10817;55.820;13.030;2024-02-26T04:32:56;0.90;99.90
21316;DHT22;10817;55.820;13.030;2024-02-26T04:35:23;0.90;99.90
21316;DHT22;10817;55.820;13.030;2024-02-26T04:37:51;0.90;99.90
21316;DHT22;10817;55.820;13.030;2024-02-26T04:40:18;0.70;99.90
21316;DHT22;10817;55.820;13.030;2024-02-26T04:42:45;1.40;99.90
21316;DHT22;10817;55.820;13.030;2024-02-26T04:45:12;0.80;99.90
21316;DHT22;10817;55.820;13.030;2024-02-26T04:47:39;0.80;99.90
21316;DHT22;10817;55.820;13.030;2024-02-26T04:50:06;0.80;99.90
21316;DHT22;10817;55.820;13.030;2024-02-26T04:52:33;0.80;99.90
21316;DHT22;10817;55.820;13.030;2024-02-26T04:55:02;0.80;99.90
21316;DHT22;10817;55.820;13.030;2024-02-26T04:57:29;0.80;99.90
21316;DHT22;10817;55.820;13.030;2024-02-26T04:59:56;1.60;99.90
21316;DHT22;10817;55.820;13.030;2024-02-26T05:02:23;0.40;99.90
21316;DHT22;10817;55.820;13.030;2024-02-26T05:04:50;0.20;99.90
21316;DHT22;10817;55.820;13.030;2024-02-26T05:07:17;0.10;99.90
21316;DHT22;10817;55.820;13.030;2024-02-26T05:09:44;0.00;99.90
21316;DHT22;10817;55.820;13.030;2024-02-26T05:12:12;2.40;99.90
21316;DHT22;10817;55.820;13.030;2024-02-26T05:14:39;2.90;99.90
21316;DHT22;10817;55.820;13.030;2024-02-26T05:17:06;0.10;99.90
21316;DHT22;10817;55.820;13.030;2024-02-26T05:19:33;0.00;99.90
21316;DHT22;10817;55.820;13.030;2024-02-26T05:22:00;0.00;99.90
21316;DHT22;10817;55.820;13.030;2024-02-26T05:24:27;0.50;99.90
21316;DHT22;10817;55.820;13.030;2024-02-26T05:26:54;0.70;99.90
21316;DHT22;10817;55.820;13.030;2024-02-26T05:29:22;0.70;99.90
21316;DHT22;10817;55.820;13.030;2024-02-26T05:31:49;2.50;99.90
21316;DHT22;10817;55.820;13.030;2024-02-26T05:34:16;1.10;99.90
21316;DHT22;10817;55.820;13.030;2024-02-26T05:36:43;2.60;99.90
21316;DHT22;10817;55.820;13.030;2024-02-26T05:39:12;4.10;99.90
21316;DHT22;10817;55.820;13.030;2024-02-26T05:41:39;2.50;99.90
21316;DHT22;10817;55.820;13.030;2024-02-26T05:44:07;1.20;99.90
21316;DHT22;10817;55.820;13.030;2024-02-26T05:46:37;1.80;99.90
21316;DHT22;10817;55.820;13.030;2024-02-26T05:49:04;0.70;99.90
21316;DHT22;10817;55.820;13.030;2024-02-26T05:51:32;0.40;99.90
21316;DHT22;10817;55.820;13.030;2024-02-26T05:53:59;1.20;99.90
21316;DHT22;10817;55.820;13.030;2024-02-26T05:56:26;0.70;99.90
21316;DHT22;10817;55.820;13.030;2024-02-26T05:58:53;0.90;99.90
21316;DHT22;10817;55.820;13.030;2024-02-26T06:01:20;0.90;99.90
21316;DHT22;10817;55.820;13.030;2024-02-26T06:03:49;3.20;99.90
21316;DHT22;10817;55.820;13.030;2024-02-26T06:06:19;1.00;99.90
21316;DHT22;10817;55.820;13.030;2024-02-26T06:08:49;1.10;99.90
21316;DHT22;10817;55.820;13.030;2024-02-26T06:11:19;3.60;99.90
21316;DHT22;10817;55.820;13.030;2024-02-26T06:13:50;3.60;99.90
21316;DHT22;10817;55.820;13.030;2024-02-26T06:16:17;3.50;99.90
21316;DHT22;10817;55.820;13.030;2024-02-26T06:18:44;1.60;99.90
21316;DHT22;10817;55.820;13.030;2024-02-26T06:21:12;1.60;99.90
21316;DHT22;10817;55.820;13.030;2024-02-26T06:23:39;1.70;99.90
21316;DHT22;10817;55.820;13.030;2024-02-26T06:26:06;1.60;99.90
21316;DHT22;10817;55.820;13.030;2024-02-26T06:28:33;3.90;99.90
21316;DHT22;10817;55.820;13.030;2024-02-26T06:31:01;1.70;99.90
21316;DHT22;10817;55.820;13.030;2024-02-26T06:33:28;3.70;99.90
21316;DHT22;10817;55.820;13.030;2024-02-26T06:35:55;1.80;99.90
21316;DHT22;10817;55.820;13.030;2024-02-26T06:38:23;3.90;99.90
21316;DHT22;10817;55.820;13.030;2024-02-26T06:40:50;1.50;99.90
21316;DHT22;10817;55.820;13.030;2024-02-26T06:43:17;1.40;99.90
21316;DHT22;10817;55.820;13.030;2024-02-26T06:45:44;1.30;99.90
21316;DHT22;10817;55.820;13.030;2024-02-26T06:48:11;1.20;99.90
21316;DHT22;10817;55.820;13.030;2024-02-26T06:50:38;1.00;99.90
21316;DHT22;10817;55.820;13.030;2024-02-26T06:53:05;0.90;99.90
21316;DHT22;10817;55.820;13.030;2024-02-26T06:55:34;0.80;99.90
21316;DHT22;10817;55.820;13.030;2024-02-26T06:58:03;0.70;99.90
21316;DHT22;10817;55.820;13.030;2024-02-26T07:00:30;0.70;99.90
21316;DHT22;10817;55.820;13.030;2024-02-26T07:02:57;0.60;99.90
21316;DHT22;10817;55.820;13.030;2024-02-26T07:05:24;0.60;99.90
21316;DHT22;10817;55.820;13.030;2024-02-26T07:07:50;0.60;99.90
21316;DHT22;10817;55.820;13.030;2024-02-26T07:10:18;0.70;99.90
21316;DHT22;10817;55.820;13.030;2024-02-26T07:12:46;3.70;99.90
21316;DHT22;10817;55.820;13.030;2024-02-26T07:15:13;0.70;99.90
21316;DHT22;10817;55.820;13.030;2024-02-26T07:17:40;1.70;99.90
21316;DHT22;10817;55.820;13.030;2024-02-26T07:20:12;0.70;99.90
21316;DHT22;10817;55.820;13.030;2024-02-26T07:22:50;0.70;99.90
21316;DHT22;10817;55.820;13.030;2024-02-26T07:25:19;0.70;99.90
21316;DHT22;10817;55.820;13.030;2024-02-26T07:27:48;0.70;99.90
21316;DHT22;10817;55.820;13.030;2024-02-26T07:30:15;0.60;99.90
21316;DHT22;10817;55.820;13.030;2024-02-26T07:32:43;2.20;99.90
21316;DHT22;10817;55.820;13.030;2024-02-26T07:35:10;0.80;99.90
21316;DHT22;10817;55.820;13.030;2024-02-26T07:37:40;0.90;99.90
21316;DHT22;10817;55.820;13.030;2024-02-26T07:40:08;1.30;99.90
21316;DHT22;10817;55.820;13.030;2024-02-26T07:42:35;1.10;99.90
21316;DHT22;10817;55.820;13.030;2024-02-26T07:45:04;1.20;99.90
21316;DHT22;10817;55.820;13.030;2024-02-26T07:47:31;1.20;99.90
21316;DHT22;10817;55.820;13.030;2024-02-26T07:49:57;3.60;99.90
21316;DHT22;10817;55.820;13.030;2024-02-26T07:52:24;1.40;99.90
21316;DHT22;10817;55.820;13.030;2024-02-26T07:54:50;1.50;99.90
21316;DHT22;10817;55.820;13.030;2024-02-26T07:57:17;1.70;99.90
21316;DHT22;10817;55.820;13.030;2024-02-26T07:59:47;1.90;99.90
21316;DHT22;10817;55.820;13.030;2024-02-26T08:02:16;3.10;99.90
21316;DHT22;10817;55.820;13.030;2024-02-26T08:04:43;2.30;99.90
21316;DHT22;10817;55.820;13.030;2024-02-26T08:07:30;2.60;99.90
21316;DHT22;10817;55.820;13.030;2024-02-26T08:09:57;2.40;99.90
21316;DHT22;10817;55.820;13.030;2024-02-26T08:12:24;2.80;99.90
21316;DHT22;10817;55.820;13.030;2024-02-26T08:14:51;2.90;99.90
21316;DHT22;10817;55.820;13.030;2024-02-26T08:17:19;3.10;99.90
21316;DHT22;10817;55.820;13.030;2024-02-26T08:19:46;4.50;99.90
21316;DHT22;10817;55.820;13.030;2024-02-26T08:22:13;3.20;99.90
21316;DHT22;10817;55.820;13.030;2024-02-26T08:24:41;3.20;99.90
21316;DHT22;10817;55.820;13.030;2024-02-26T08:27:10;3.30;99.90
21316;DHT22;10817;55.820;13.030;2024-02-26T08:29:37;4.60;99.90
21316;DHT22;10817;55.820;13.030;2024-02-26T08:32:04;3.40;99.90
21316;DHT22;10817;55.820;13.030;2024-02-26T08:34:34;3.60;99.90
21316;DHT22;10817;55.820;13.030;2024-02-26T08:37:01;5.60;99.90
21316;DHT22;10817;55.820;13.030;2024-02-26T08:39:28;3.80;99.90
21316;DHT22;10817;55.820;13.030;2024-02-26T08:41:54;4.00;99.90
21316;DHT22;10817;55.820;13.030;2024-02-26T08:44:21;4.10;99.90
21316;DHT22;10817;55.820;13.030;2024-02-26T08:46:48;6.60;99.90
21316;DHT22;10817;55.820;13.030;2024-02-26T08:49:16;4.40;99.90
21316;DHT22;10817;55.820;13.030;2024-02-26T08:51:44;4.50;99.90
21316;DHT22;10817;55.820;13.030;2024-02-26T08:54:11;4.70;99.90
21316;DHT22;10817;55.820;13.030;2024-02-26T08:56:38;5.00;99.90
21316;DHT22;10817;55.820;13.030;2024-02-26T08:59:05;5.20;99.90
21316;DHT22;10817;55.820;13.030;2024-02-26T09:01:32;5.10;99.90
21316;DHT22;10817;55.820;13.030;2024-02-26T09:03:59;5.20;99.90
21316;DHT22;10817;55.820;13.030;2024-02-26T09:06:26;5.30;99.90
21316;DHT22;10817;55.820;13.030;2024-02-26T09:08:54;6.50;99.90
21316;DHT22;10817;55.820;13.030;2024-02-26T09:11:21;5.30;99.90
21316;DHT22;10817;55.820;13.030;2024-02-26T09:13:48;5.30;99.90
21316;DHT22;10817;55.820;13.030;2024-02-26T09:16:15;6.70;99.90
21316;DHT22;10817;55.820;13.030;2024-02-26T09:18:42;5.40;99.90
21316;DHT22;10817;55.820;13.030;2024-02-26T09:21:08;5.60;99.90
21316;DHT22;10817;55.820;13.030;2024-02-26T09:23:35;5.50;99.90
21316;DHT22;10817;55.820;13.030;2024-02-26T09:26:05;5.60;99.90
21316;DHT22;10817;55.820;13.030;2024-02-26T09:28:32;5.60;99.90
21316;DHT22;10817;55.820;13.030;2024-02-26T09:31:03;6.20;99.90
21316;DHT22;10817;55.820;13.030;2024-02-26T09:33:30;5.80;99.90
21316;DHT22;10817;55.820;13.030;2024-02-26T09:35:57;5.80;99.90
21316;DHT22;10817;55.820;13.030;2024-02-26T09:38:27;6.00;99.90
21316;DHT22;10817;55.820;13.030;2024-02-26T09:40:56;6.00;99.90
21316;DHT22;10817;55.820;13.030;2024-02-26T09:43:26;6.90;99.90
21316;DHT22;10817;55.820;13.030;2024-02-26T09:45:55;7.80;99.90
21316;DHT22;10817;55.820;13.030;2024-02-26T09:48:22;6.50;99.90
21316;DHT22;10817;55.820;13.030;2024-02-26T09:50:50;6.70;99.90
21316;DHT22;10817;55.820;13.030;2024-02-26T09:53:18;6.70;99.90
21316;DHT22;10817;55.820;13.030;2024-02-26T09:55:48;6.80;99.90
21316;DHT22;10817;55.820;13.030;2024-02-26T09:58:16;6.90;99.90
21316;DHT22;10817;55.820;13.030;2024-02-26T10:00:50;8.60;99.90
21316;DHT22;10817;55.820;13.030;2024-02-26T10:03:27;7.40;99.90
21316;DHT22;10817;55.820;13.030;2024-02-26T10:05:55;7.70;99.90
21316;DHT22;10817;55.820;13.030;2024-02-26T10:08:24;8.80;99.90
21316;DHT22;10817;55.820;13.030;2024-02-26T10:10:51;9.10;99.90
21316;DHT22;10817;55.820;13.030;2024-02-26T10:13:19;8.70;99.90
21316;DHT22;10817;55.820;13.030;2024-02-26T10:15:47;9.10;99.90
21316;DHT22;10817;55.820;13.030;2024-02-26T10:18:15;9.80;99.90
21316;DHT22;10817;55.820;13.030;2024-02-26T10:20:42;10.40;99.90
21316;DHT22;10817;55.820;13.030;2024-02-26T10:23:09;10.70;99.90
21316;DHT22;10817;55.820;13.030;2024-02-26T10:25:36;10.60;99.90
21316;DHT22;10817;55.820;13.030;2024-02-26T10:28:03;10.20;99.90
21316;DHT22;10817;55.820;13.030;2024-02-26T10:30:30;10.00;99.90
21316;DHT22;10817;55.820;13.030;2024-02-26T10:32:59;10.30;99.90
21316;DHT22;10817;55.820;13.030;2024-02-26T10:35:26;11.70;99.90
21316;DHT22;10817;55.820;13.030;2024-02-26T10:37:54;13.70;99.90
21316;DHT22;10817;55.820;13.030;2024-02-26T10:40:21;16.70;99.90
21316;DHT22;10817;55.820;13.030;2024-02-26T10:42:48;16.80;99.90
21316;DHT22;10817;55.820;13.030;2024-02-26T10:45:15;17.90;99.90
21316;DHT22;10817;55.820;13.030;2024-02-26T10:47:41;18.20;99.90
21316;DHT22;10817;55.820;13.030;2024-02-26T10:50:12;18.80;99.90
21316;DHT22;10817;55.820;13.030;2024-02-26T10:52:41;18.70;99.90
21316;DHT22;10817;55.820;13.030;2024-02-26T10:55:15;19.20;99.90
21316;DHT22;10817;55.820;13.030;2024-02-26T10:57:45;18.80;99.90
21316;DHT22;10817;55.820;13.030;2024-02-26T11:00:14;19.30;99.90
21316;DHT22;10817;55.820;13.030;2024-02-26T11:02:41;19.10;99.90
21316;DHT22;10817;55.820;13.030;2024-02-26T11:05:12;19.50;99.90
21316;DHT22;10817;55.820;13.030;2024-02-26T11:07:41;19.30;99.90
21316;DHT22;10817;55.820;13.030;2024-02-26T11:10:09;19.90;99.90
21316;DHT22;10817;55.820;13.030;2024-02-26T11:12:39;18.90;99.90
21316;DHT22;10817;55.820;13.030;2024-02-26T11:15:08;19.50;99.90
21316;DHT22;10817;55.820;13.030;2024-02-26T11:17:38;20.00;99.90
21316;DHT22;10817;55.820;13.030;2024-02-26T11:20:12;21.00;99.90
21316;DHT22;10817;55.820;13.030;2024-02-26T11:22:40;21.80;99.90
21316;DHT22;10817;55.820;13.030;2024-02-26T11:25:08;21.80;99.90
21316;DHT22;10817;55.820;13.030;2024-02-26T11:27:39;22.10;99.90
21316;DHT22;10817;55.820;13.030;2024-02-26T11:30:10;21.80;99.90
21316;DHT22;10817;55.820;13.030;2024-02-26T11:32:39;21.20;99.90
21316;DHT22;10817;55.820;13.030;2024-02-26T11:35:07;20.70;99.90
21316;DHT22;10817;55.820;13.030;2024-02-26T11:37:37;20.90;99.90
21316;DHT22;10817;55.820;13.030;2024-02-26T11:40:05;19.80;99.90
21316;DHT22;10817;55.820;13.030;2024-02-26T11:42:43;19.40;99.90
21316;DHT22;10817;55.820;13.030;2024-02-26T11:48:12;19.30;99.90
21316;DHT22;10817;55.820;13.030;2024-02-26T11:50:40;19.80;99.90
21316;DHT22;10817;55.820;13.030;2024-02-26T11:53:23;20.00;99.90
21316;DHT22;10817;55.820;13.030;2024-02-26T11:56:22;21.30;99.90
21316;DHT22;10817;55.820;13.030;2024-02-26T11:58:57;21.00;99.90
21316;DHT22;10817;55.820;13.030;2024-02-26T12:01:38;21.60;99.90
21316;DHT22;10817;55.820;13.030;2024-02-26T12:04:06;19.20;99.90
21316;DHT22;10817;55.820;13.030;2024-02-26T12:06:41;18.50;99.90
21316;DHT22;10817;55.820;13.030;2024-02-26T12:09:10;18.60;99.90
21316;DHT22;10817;55.820;13.030;2024-02-26T12:11:39;18.40;99.90
21316;DHT22;10817;55.820;13.030;2024-02-26T12:14:07;18.60;99.90
21316;DHT22;10817;55.820;13.030;2024-02-26T12:16:35;18.50;99.90
21316;DHT22;10817;55.820;13.030;2024-02-26T12:19:04;18.50;99.90
21316;DHT22;10817;55.820;13.030;2024-02-26T12:21:33;18.80;99.90
21316;DHT22;10817;55.820;13.030;2024-02-26T12:24:11;19.70;99.90
21316;DHT22;10817;55.820;13.030;2024-02-26T12:26:39;20.80;99.90
21316;DHT22;10817;55.820;13.030;2024-02-26T12:29:07;21.90;99.90
21316;DHT22;10817;55.820;13.030;2024-02-26T12:31:35;21.10;99.90
21316;DHT22;10817;55.820;13.030;2024-02-26T12:34:04;21.00;99.90
21316;DHT22;10817;55.820;13.030;2024-02-26T12:36:32;20.60;99.90
21316;DHT22;10817;55.820;13.030;2024-02-26T12:39:00;20.40;99.90
21316;DHT22;10817;55.820;13.030;2024-02-26T12:41:29;21.70;99.90
21316;DHT22;10817;55.820;13.030;2024-02-26T12:43:57;21.10;99.90
21316;DHT22;10817;55.820;13.030;2024-02-26T12:46:24;22.30;99.90
21316;DHT22;10817;55.820;13.030;2024-02-26T12:48:51;22.80;97.30
21316;DHT22;10817;55.820;13.030;2024-02-26T12:51:19;22.60;97.00
21316;DHT22;10817;55.820;13.030;2024-02-26T12:53:47;22.80;95.00
21316;DHT22;10817;55.820;13.030;2024-02-26T12:56:16;22.80;95.40
21316;DHT22;10817;55.820;13.030;2024-02-26T12:58:45;22.40;92.60
21316;DHT22;10817;55.820;13.030;2024-02-26T13:01:15;21.70;94.00
21316;DHT22;10817;55.820;13.030;2024-02-26T13:03:42;19.40;96.10
21316;DHT22;10817;55.820;13.030;2024-02-26T13:06:09;18.20;99.90
21316;DHT22;10817;55.820;13.030;2024-02-26T13:08:36;17.00;99.90
21316;DHT22;10817;55.820;13.030;2024-02-26T13:11:04;18.30;99.90
21316;DHT22;10817;55.820;13.030;2024-02-26T13:13:31;18.30;99.90
21316;DHT22;10817;55.820;13.030;2024-02-26T13:16:03;19.50;99.90
21316;DHT22;10817;55.820;13.030;2024-02-26T13:18:32;19.20;99.90
21316;DHT22;10817;55.820;13.030;2024-02-26T13:21:09;18.50;99.90
21316;DHT22;10817;55.820;13.030;2024-02-26T13:23:37;18.30;99.90
21316;DHT22;10817;55.820;13.030;2024-02-26T13:26:04;18.40;99.90
21316;DHT22;10817;55.820;13.030;2024-02-26T13:28:31;16.80;99.90
21316;DHT22;10817;55.820;13.030;2024-02-26T13:30:58;15.70;99.90
21316;DHT22;10817;55.820;13.030;2024-02-26T13:33:28;15.10;99.90
21316;DHT22;10817;55.820;13.030;2024-02-26T13:35:56;14.60;99.90
21316;DHT22;10817;55.820;13.030;2024-02-26T13:38:24;14.50;99.90
21316;DHT22;10817;55.820;13.030;2024-02-26T13:40:51;14.40;99.90
21316;DHT22;10817;55.820;13.030;2024-02-26T13:43:18;14.30;99.90
21316;DHT22;10817;55.820;13.030;2024-02-26T13:45:45;14.50;99.90
21316;DHT22;10817;55.820;13.030;2024-02-26T13:48:13;15.10;99.90
21316;DHT22;10817;55.820;13.030;2024-02-26T13:50:42;17.70;99.90
21316;DHT22;10817;55.820;13.030;2024-02-26T13:53:11;16.50;99.90
21316;DHT22;10817;55.820;13.030;2024-02-26T13:55:38;17.00;99.90
21316;DHT22;10817;55.820;13.030;2024-02-26T13:58:08;17.60;99.90
21316;DHT22;10817;55.820;13.030;2024-02-26T14:00:35;18.20;99.90
21316;DHT22;10817;55.820;13.030;2024-02-26T14:03:03;17.90;99.90
21316;DHT22;10817;55.820;13.030;2024-02-26T14:05:30;18.50;99.90
21316;DHT22;10817;55.820;13.030;2024-02-26T14:07:59;18.60;99.90
21316;DHT22;10817;55.820;13.030;2024-02-26T14:10:26;18.00;99.90
21316;DHT22;10817;55.820;13.030;2024-02-26T14:12:53;17.10;99.90
21316;DHT22;10817;55.820;13.030;2024-02-26T14:15:19;17.20;99.90
21316;DHT22;10817;55.820;13.030;2024-02-26T14:17:46;17.00;99.90
21316;DHT22;10817;55.820;13.030;2024-02-26T14:20:19;17.10;99.90
21316;DHT22;10817;55.820;13.030;2024-02-26T14:22:46;16.50;99.90
21316;DHT22;10817;55.820;13.030;2024-02-26T14:25:15;16.30;99.90
21316;DHT22;10817;55.820;13.030;2024-02-26T14:27:42;17.80;99.90
21316;DHT22;10817;55.820;13.030;2024-02-26T14:30:09;16.60;99.90
21316;DHT22;10817;55.820;13.030;2024-02-26T14:32:36;15.50;99.90
21316;DHT22;10817;55.820;13.030;2024-02-26T14:35:05;15.50;99.90
21316;DHT22;10817;55.820;13.030;2024-02-26T14:37:33;15.70;99.90
21316;DHT22;10817;55.820;13.030;2024-02-26T14:40:00;15.50;99.90
21316;DHT22;10817;55.820;13.030;2024-02-26T14:42:29;14.70;99.90
21316;DHT22;10817;55.820;13.030;2024-02-26T14:44:56;14.00;99.90
21316;DHT22;10817;55.820;13.030;2024-02-26T14:47:23;13.20;99.90
21316;DHT22;10817;55.820;13.030;2024-02-26T14:49:50;12.70;99.90
21316;DHT22;10817;55.820;13.030;2024-02-26T14:52:17;12.40;99.90
21316;DHT22;10817;55.820;13.030;2024-02-26T14:59:02;11.80;99.90
21316;DHT22;10817;55.820;13.030;2024-02-26T15:01:29;11.60;99.90
21316;DHT22;10817;55.820;13.030;2024-02-26T15:03:56;11.70;99.90
21316;DHT22;10817;55.820;13.030;2024-02-26T15:06:33;11.20;99.90
21316;DHT22;10817;55.820;13.030;2024-02-26T15:09:01;10.90;99.90
21316;DHT22;10817;55.820;13.030;2024-02-26T15:11:29;10.90;99.90
21316;DHT22;10817;55.820;13.030;2024-02-26T15:13:56;10.80;99.90
21316;DHT22;10817;55.820;13.030;2024-02-26T15:16:24;10.60;99.90
21316;DHT22;10817;55.820;13.030;2024-02-26T15:18:51;10.40;99.90
21316;DHT22;10817;55.820;13.030;2024-02-26T15:21:18;10.30;99.90
21316;DHT22;10817;55.820;13.030;2024-02-26T15:23:44;10.10;99.90
21316;DHT22;10817;55.820;13.030;2024-02-26T15:26:11;10.20;99.90
21316;DHT22;10817;55.820;13.030;2024-02-26T15:28:40;10.10;99.90
21316;DHT22;10817;55.820;13.030;2024-02-26T15:31:06;10.10;99.90
21316;DHT22;10817;55.820;13.030;2024-02-26T15:33:35;10.20;99.90
21316;DHT22;10817;55.820;13.030;2024-02-26T15:36:01;10.20;99.90
21316;DHT22;10817;55.820;13.030;2024-02-26T15:38:28;10.20;99.90